Time;durP1;ratioP1;P1;durP2;ratioP2;P2;SDS_P1;SDS_P2;PMS_P1;PMS_P2;Temp;Humidity;BMP_temperature;BMP_pressure;BME280_temperature;BME280_humidity;BME280_pressure;Samples;Min_cycle;Max_cycle;Signal;HPM_P1;HPM_P2
2023/03/03 00:02:20;;;;;;;;;;;12.80;47.90;;;;;;5053274;28;20290;-90
2023/03/03 00:04:48;;;;;;;;;;;12.80;47.80;;;;;;5035732;28;19942;-89
2023/03/03 00:07:20;;;;;;;;;;;12.80;47.80;;;;;;5036234;28;19928;-90
2023/03/03 00:09:46;;;;;;;;;;;12.80;47.80;;;;;;5033397;28;19909;-89
2023/03/03 00:12:34;;;;;;;;;;;12.80;47.80;;;;;;5036151;28;19939;-89
2023/03/03 00:15:00;;;;;;;;;;;12.80;47.80;;;;;;5022648;28;19916;-89
2023/03/03 00:17:27;;;;;;;;;;;12.80;47.90;;;;;;5036100;28;20270;-90
2023/03/03 00:19:55;;;;;;;;;;;12.80;47.90;;;;;;5036985;28;19948;-90
2023/03/03 00:22:28;;;;;;;;;;;12.80;47.90;;;;;;5037275;28;20015;-89
2023/03/03 00:24:54;;;;;;;;;;;12.80;47.90;;;;;;5036992;28;19948;-89
2023/03/03 00:27:30;;;;;;;;;;;12.80;47.90;;;;;;5041237;28;19967;-89
2023/03/03 00:29:56;;;;;;;;;;;12.80;48.30;;;;;;5058936;28;19940;-89
2023/03/03 00:32:24;;;;;;;;;;;12.80;48.00;;;;;;5059324;28;19909;-89
2023/03/03 00:34:50;;;;;;;;;;;12.70;48.00;;;;;;5042272;28;19935;-89
2023/03/03 00:37:29;;;;;;;;;;;12.70;48.10;;;;;;5042005;28;19908;-89
2023/03/03 00:40:01;;;;;;;;;;;12.70;48.10;;;;;;5042648;28;19924;-89
2023/03/03 00:42:29;;;;;;;;;;;12.60;48.20;;;;;;5059608;28;19912;-89
2023/03/03 00:44:59;;;;;;;;;;;12.60;48.20;;;;;;5041842;28;20273;-90
2023/03/03 00:47:27;;;;;;;;;;;12.60;48.20;;;;;;5041335;28;19913;-90
2023/03/03 00:49:54;;;;;;;;;;;12.60;48.30;;;;;;5041223;28;19940;-89
2023/03/03 00:52:22;;;;;;;;;;;12.50;48.30;;;;;;5041893;28;19940;-89
2023/03/03 00:54:51;;;;;;;;;;;12.50;48.40;;;;;;5041528;28;19908;-90
2023/03/03 00:57:19;;;;;;;;;;;12.50;48.40;;;;;;5041355;28;19909;-89
2023/03/03 00:59:48;;;;;;;;;;;12.50;48.50;;;;;;5040626;28;20185;-90
2023/03/03 01:02:14;;;;;;;;;;;12.40;48.50;;;;;;5041235;28;19912;-90
2023/03/03 01:04:43;;;;;;;;;;;12.40;48.50;;;;;;5041425;28;19920;-90
2023/03/03 01:07:08;;;;;;;;;;;12.40;48.60;;;;;;5058477;28;19916;-89
2023/03/03 01:09:34;;;;;;;;;;;12.40;48.70;;;;;;5041312;28;19913;-89
2023/03/03 01:12:03;;;;;;;;;;;12.30;48.70;;;;;;5040090;28;19990;-90
2023/03/03 01:14:28;;;;;;;;;;;12.30;48.70;;;;;;5039266;28;19924;-89
2023/03/03 01:16:54;;;;;;;;;;;12.30;49.20;;;;;;5041077;28;19925;-89
2023/03/03 01:19:19;;;;;;;;;;;12.20;48.80;;;;;;5039287;28;19920;-89
2023/03/03 01:21:48;;;;;;;;;;;12.20;48.90;;;;;;5040518;28;19948;-90
2023/03/03 01:24:13;;;;;;;;;;;12.20;48.90;;;;;;5039699;28;19913;-89
2023/03/03 01:26:39;;;;;;;;;;;12.20;49.00;;;;;;5038946;28;19909;-89
2023/03/03 01:29:04;;;;;;;;;;;12.20;49.00;;;;;;5038314;28;20326;-89
2023/03/03 01:31:30;;;;;;;;;;;12.10;49.00;;;;;;5039215;28;19909;-89
2023/03/03 01:33:56;;;;;;;;;;;12.10;49.10;;;;;;5040131;28;19972;-90
2023/03/03 01:36:22;;;;;;;;;;;12.10;49.10;;;;;;5038239;28;19935;-89
2023/03/03 01:38:48;;;;;;;;;;;12.10;49.20;;;;;;5039373;28;20011;-89
2023/03/03 01:41:14;;;;;;;;;;;12.10;49.20;;;;;;5038754;28;20000;-90
2023/03/03 01:43:46;;;;;;;;;;;12.10;49.20;;;;;;5055328;28;20171;-90
2023/03/03 01:46:30;;;;;;;;;;;12.00;49.30;;;;;;5039878;28;19909;-89
2023/03/03 01:49:01;;;;;;;;;;;12.00;49.30;;;;;;5039094;28;20168;-89
2023/03/03 01:51:32;;;;;;;;;;;12.00;49.30;;;;;;5039214;28;19917;-89
2023/03/03 01:54:08;;;;;;;;;;;12.10;49.30;;;;;;5039749;28;19909;-89
2023/03/03 01:56:34;;;;;;;;;;;12.10;49.20;;;;;;5038808;28;19908;-89
2023/03/03 01:59:02;;;;;;;;;;;12.10;49.20;;;;;;5038441;28;20302;-90
2023/03/03 02:01:28;;;;;;;;;;;12.20;49.20;;;;;;5039155;28;19909;-89
2023/03/03 02:03:54;;;;;;;;;;;12.20;49.20;;;;;;5039409;28;20007;-89
2023/03/03 02:06:24;;;;;;;;;;;12.20;49.10;;;;;;5039627;28;19959;-90
2023/03/03 02:08:55;;;;;;;;;;;12.20;49.10;;;;;;5039329;28;19978;-89
2023/03/03 02:11:21;;;;;;;;;;;12.20;49.10;;;;;;5058073;28;19913;-89
2023/03/03 02:13:49;;;;;;;;;;;12.20;49.20;;;;;;5040854;28;19913;-90
2023/03/03 02:16:15;;;;;;;;;;;12.20;49.10;;;;;;5057413;28;20192;-89
2023/03/03 02:18:41;;;;;;;;;;;12.20;49.20;;;;;;5056816;28;20283;-89
2023/03/03 02:21:11;;;;;;;;;;;12.20;49.20;;;;;;5039662;28;19919;-90
2023/03/03 02:23:56;;;;;;;;;;;12.20;49.20;;;;;;5039225;28;19913;-90
2023/03/03 02:26:23;;;;;;;;;;;12.20;49.60;;;;;;5057918;28;19916;-90
2023/03/03 02:28:52;;;;;;;;;;;12.20;49.20;;;;;;5039591;28;19934;-89
2023/03/03 02:31:25;;;;;;;;;;;12.20;49.20;;;;;;5036153;28;19920;-90
2023/03/03 02:33:52;;;;;;;;;;;12.20;49.20;;;;;;5036565;28;20127;-90
2023/03/03 02:36:28;;;;;;;;;;;12.20;49.30;;;;;;5054282;28;19909;-90
2023/03/03 02:38:59;;;;;;;;;;;12.10;49.30;;;;;;5036391;28;19944;-89
2023/03/03 02:41:43;;;;;;;;;;;12.10;49.40;;;;;;5054598;28;19921;-90
2023/03/03 02:44:10;;;;;;;;;;;12.10;49.40;;;;;;5054014;28;19913;-90
2023/03/03 02:46:40;;;;;;;;;;;12.10;49.40;;;;;;5038464;28;19967;-90
2023/03/03 02:49:06;;;;;;;;;;;12.10;49.50;;;;;;5037489;28;19920;-90
2023/03/03 02:51:32;;;;;;;;;;;12.10;49.50;;;;;;5038565;28;19948;-90
2023/03/03 02:53:57;;;;;;;;;;;12.00;49.50;;;;;;5038763;28;19948;-89
2023/03/03 02:56:23;;;;;;;;;;;12.00;49.60;;;;;;5037957;28;19910;-90
2023/03/03 02:58:48;;;;;;;;;;;12.00;49.60;;;;;;5037965;28;19948;-87
2023/03/03 03:01:14;;;;;;;;;;;12.10;49.60;;;;;;5039379;28;20003;-87
2023/03/03 03:03:40;;;;;;;;;;;12.10;49.50;;;;;;5039292;28;19943;-87
2023/03/03 03:06:06;;;;;;;;;;;12.10;49.40;;;;;;5038112;28;19909;-87
2023/03/03 03:08:32;;;;;;;;;;;12.20;49.40;;;;;;5038375;28;19909;-87
2023/03/03 03:10:57;;;;;;;;;;;12.20;49.40;;;;;;5054640;28;20000;-87
2023/03/03 03:13:23;;;;;;;;;;;12.20;49.30;;;;;;5038484;28;19905;-86
2023/03/03 03:15:52;;;;;;;;;;;12.20;49.30;;;;;;5038567;28;19909;-86
2023/03/03 03:18:20;;;;;;;;;;;12.20;49.30;;;;;;5038767;28;19919;-87
2023/03/03 03:20:46;;;;;;;;;;;12.20;49.30;;;;;;5038339;28;20285;-87
2023/03/03 03:23:20;;;;;;;;;;;12.20;49.30;;;;;;5056024;28;20295;-87
2023/03/03 03:25:46;;;;;;;;;;;12.20;49.30;;;;;;5038887;28;19916;-87
2023/03/03 03:28:13;;;;;;;;;;;12.20;49.30;;;;;;5055050;28;19913;-87
2023/03/03 03:30:38;;;;;;;;;;;12.20;49.30;;;;;;5037613;28;20230;-87
2023/03/03 03:33:04;;;;;;;;;;;12.20;49.30;;;;;;5038195;28;19912;-87
2023/03/03 03:35:31;;;;;;;;;;;12.20;49.30;;;;;;5037722;28;19912;-87
2023/03/03 03:37:57;;;;;;;;;;;12.20;49.40;;;;;;5037885;28;19939;-87
2023/03/03 03:40:24;;;;;;;;;;;12.10;49.40;;;;;;5055223;28;19924;-88
2023/03/03 03:42:49;;;;;;;;;;;12.10;49.50;;;;;;5037571;28;20151;-88
2023/03/03 03:45:15;;;;;;;;;;;12.00;49.60;;;;;;5035398;28;20342;-88
2023/03/03 03:47:42;;;;;;;;;;;12.00;49.70;;;;;;5037220;28;19909;-88
2023/03/03 03:50:08;;;;;;;;;;;11.90;49.80;;;;;;5037432;28;20266;-88
2023/03/03 03:52:34;;;;;;;;;;;11.90;49.80;;;;;;5053986;28;19930;-88
2023/03/03 03:55:07;;;;;;;;;;;11.80;49.90;;;;;;5035900;28;20175;-88
2023/03/03 03:57:33;;;;;;;;;;;11.80;49.90;;;;;;5036376;28;19980;-88
2023/03/03 04:00:01;;;;;;;;;;;11.70;50.00;;;;;;5036548;28;20015;-88
2023/03/03 04:02:27;;;;;;;;;;;11.70;50.10;;;;;;5037453;28;20314;-88
2023/03/03 04:04:53;;;;;;;;;;;11.60;50.10;;;;;;5035973;28;20377;-88
2023/03/03 04:07:21;;;;;;;;;;;11.60;50.20;;;;;;5035749;28;19974;-88
2023/03/03 04:09:47;;;;;;;;;;;11.70;50.30;;;;;;5035965;28;19909;-88
2023/03/03 04:12:12;;;;;;;;;;;12.20;49.60;;;;;;5035822;28;19909;-87
2023/03/03 04:14:38;;;;;;;;;;;12.80;48.70;;;;;;5035577;28;19935;-88
2023/03/03 04:17:03;;;;;;;;;;;13.20;48.10;;;;;;5035117;28;19939;-88
2023/03/03 04:19:29;;;;;;;;;;;13.50;47.50;;;;;;5036048;28;19920;-88
2023/03/03 04:21:55;;;;;;;;;;;13.80;47.30;;;;;;5036013;28;19974;-88
2023/03/03 04:24:20;;;;;;;;;;;14.00;47.00;;;;;;5052473;28;19913;-88
2023/03/03 04:26:46;;;;;;;;;;;14.20;46.70;;;;;;5034767;28;19909;-88
2023/03/03 04:29:11;;;;;;;;;;;14.40;46.40;;;;;;5034896;28;20400;-88
2023/03/03 04:31:37;;;;;;;;;;;14.60;46.20;;;;;;5034479;28;19909;-88
2023/03/03 04:34:03;;;;;;;;;;;14.70;46.00;;;;;;5035433;28;19909;-88
2023/03/03 04:36:28;;;;;;;;;;;14.90;45.80;;;;;;5034328;28;19916;-88
2023/03/03 04:38:57;;;;;;;;;;;14.90;45.70;;;;;;5035649;28;19919;-88
2023/03/03 04:41:22;;;;;;;;;;;14.90;45.60;;;;;;5034848;28;20219;-88
2023/03/03 04:43:48;;;;;;;;;;;14.80;45.70;;;;;;5036891;28;19913;-88
2023/03/03 04:46:14;;;;;;;;;;;14.70;45.80;;;;;;5036777;28;19916;-88
2023/03/03 04:48:39;;;;;;;;;;;14.60;45.90;;;;;;5036420;28;20018;-88
2023/03/03 04:51:05;;;;;;;;;;;14.50;46.10;;;;;;5035643;28;19958;-88
2023/03/03 04:53:31;;;;;;;;;;;14.30;46.20;;;;;;5036937;28;20345;-88
2023/03/03 04:55:56;;;;;;;;;;;14.20;46.40;;;;;;5053673;28;20179;-88
2023/03/03 04:58:22;;;;;;;;;;;14.00;46.60;;;;;;5035698;28;19935;-88
2023/03/03 05:00:57;;;;;;;;;;;13.90;46.80;;;;;;5034026;28;19943;-88
2023/03/03 05:03:23;;;;;;;;;;;13.80;47.00;;;;;;5034406;28;19920;-88
2023/03/03 05:05:49;;;;;;;;;;;13.70;47.20;;;;;;5036399;28;19909;-88
2023/03/03 05:08:17;;;;;;;;;;;13.50;47.40;;;;;;5035305;28;19912;-88
2023/03/03 05:10:44;;;;;;;;;;;13.30;47.60;;;;;;5035434;28;19917;-88
2023/03/03 05:13:09;;;;;;;;;;;13.20;47.80;;;;;;5038648;28;19912;-88
2023/03/03 05:15:35;;;;;;;;;;;13.10;48.00;;;;;;5039202;28;19923;-89
2023/03/03 05:18:00;;;;;;;;;;;13.00;48.20;;;;;;5037448;28;19920;-88
2023/03/03 05:20:26;;;;;;;;;;;12.80;48.30;;;;;;5036711;28;19909;-88
2023/03/03 05:22:56;;;;;;;;;;;12.70;48.50;;;;;;5037665;28;19920;-88
2023/03/03 05:25:21;;;;;;;;;;;12.60;48.70;;;;;;5054019;28;19923;-88
2023/03/03 05:27:50;;;;;;;;;;;12.50;48.80;;;;;;5036934;28;19908;-88
2023/03/03 05:30:16;;;;;;;;;;;12.50;49.00;;;;;;5037638;28;20091;-88
2023/03/03 05:32:41;;;;;;;;;;;12.30;49.10;;;;;;5036056;28;19919;-87
2023/03/03 05:35:07;;;;;;;;;;;12.20;49.30;;;;;;5035902;28;19908;-88
2023/03/03 05:37:35;;;;;;;;;;;12.20;49.50;;;;;;5035649;28;19999;-88
2023/03/03 05:40:01;;;;;;;;;;;12.10;49.60;;;;;;5054121;28;19927;-88
2023/03/03 05:42:32;;;;;;;;;;;12.10;49.70;;;;;;5052179;28;19923;-89
2023/03/03 05:44:58;;;;;;;;;;;12.10;49.80;;;;;;5034366;28;19912;-88
2023/03/03 05:47:23;;;;;;;;;;;12.10;49.80;;;;;;5051506;28;19940;-88
2023/03/03 05:49:49;;;;;;;;;;;12.20;49.90;;;;;;5034366;28;19909;-88
2023/03/03 05:52:14;;;;;;;;;;;12.30;49.70;;;;;;5032121;28;19919;-88
2023/03/03 05:54:40;;;;;;;;;;;12.60;49.40;;;;;;5034239;28;20267;-88
2023/03/03 05:57:08;;;;;;;;;;;12.80;49.00;;;;;;5033763;28;19920;-88
2023/03/03 05:59:37;;;;;;;;;;;13.00;48.70;;;;;;5033394;28;19917;-88
2023/03/03 06:02:06;;;;;;;;;;;13.20;48.40;;;;;;5033928;28;20335;-88
2023/03/03 06:04:32;;;;;;;;;;;13.40;48.10;;;;;;5033272;28;19941;-88
2023/03/03 06:06:57;;;;;;;;;;;13.50;47.80;;;;;;5036160;28;19909;-88
2023/03/03 06:09:25;;;;;;;;;;;13.60;47.60;;;;;;5035690;28;19919;-88
2023/03/03 06:11:52;;;;;;;;;;;13.60;47.40;;;;;;5034576;28;19908;-88
2023/03/03 06:14:21;;;;;;;;;;;13.60;47.40;;;;;;5032562;28;19909;-88
2023/03/03 06:16:47;;;;;;;;;;;13.60;47.40;;;;;;5032764;28;19960;-88
2023/03/03 06:19:12;;;;;;;;;;;13.60;47.40;;;;;;5034565;28;19959;-88
2023/03/03 06:21:41;;;;;;;;;;;13.50;47.50;;;;;;5034155;28;19916;-88
2023/03/03 06:24:10;;;;;;;;;;;13.40;47.50;;;;;;5033769;28;19927;-88
2023/03/03 06:26:35;;;;;;;;;;;13.30;47.60;;;;;;5033473;28;19908;-88
2023/03/03 06:29:01;;;;;;;;;;;13.20;47.80;;;;;;5030985;28;20167;-88
2023/03/03 06:31:27;;;;;;;;;;;13.10;47.90;;;;;;5029719;28;19970;-88
2023/03/03 06:33:55;;;;;;;;;;;13.00;48.00;;;;;;5029516;28;19917;-88
2023/03/03 06:36:24;;;;;;;;;;;12.90;48.10;;;;;;5030815;28;19924;-88
2023/03/03 06:38:52;;;;;;;;;;;12.70;48.30;;;;;;5030843;28;20314;-88
2023/03/03 06:41:18;;;;;;;;;;;12.60;48.40;;;;;;5030599;28;20267;-88
2023/03/03 06:43:43;;;;;;;;;;;12.50;48.60;;;;;;5029028;28;19920;-88
2023/03/03 06:46:09;;;;;;;;;;;12.40;48.90;;;;;;5031746;28;19920;-88
2023/03/03 06:48:39;;;;;;;;;;;12.30;49.00;;;;;;5030482;28;20078;-88
2023/03/03 06:51:21;;;;;;;;;;;12.20;49.20;;;;;;5030278;28;19959;-88
2023/03/03 06:53:47;;;;;;;;;;;12.20;49.40;;;;;;5030604;28;19909;-88
2023/03/03 06:56:13;;;;;;;;;;;12.10;49.50;;;;;;5046747;28;19909;-88
2023/03/03 06:58:39;;;;;;;;;;;12.20;49.70;;;;;;5027552;28;19909;-88
2023/03/03 07:01:10;;;;;;;;;;;12.30;49.60;;;;;;5026315;28;20076;-89
2023/03/03 07:03:36;;;;;;;;;;;12.40;49.40;;;;;;5027814;28;19916;-88
2023/03/03 07:06:07;;;;;;;;;;;12.60;49.20;;;;;;5030850;28;20073;-88
2023/03/03 07:08:36;;;;;;;;;;;12.80;48.90;;;;;;5032390;28;20032;-88
2023/03/03 07:11:07;;;;;;;;;;;13.00;48.60;;;;;;5046779;28;19940;-88
2023/03/03 07:13:33;;;;;;;;;;;13.20;48.40;;;;;;5029409;28;20096;-88
2023/03/03 07:16:00;;;;;;;;;;;13.30;48.10;;;;;;5030775;28;19909;-88
2023/03/03 07:18:28;;;;;;;;;;;13.50;47.90;;;;;;5031541;28;20238;-88
2023/03/03 07:20:57;;;;;;;;;;;13.60;47.70;;;;;;5029942;28;20009;-88
2023/03/03 07:23:24;;;;;;;;;;;13.70;47.60;;;;;;5030683;28;19931;-88
2023/03/03 07:25:49;;;;;;;;;;;13.80;47.50;;;;;;5030292;28;19909;-89
2023/03/03 07:28:18;;;;;;;;;;;13.80;47.50;;;;;;5031467;28;19913;-88
2023/03/03 07:30:44;;;;;;;;;;;13.70;47.50;;;;;;5031657;28;19916;-89
2023/03/03 07:33:36;;;;;;;;;;;13.60;47.60;;;;;;5047983;28;19913;-88
2023/03/03 07:36:02;;;;;;;;;;;13.60;47.70;;;;;;5011413;28;19913;-88
2023/03/03 07:38:40;;;;;;;;;;;13.50;47.80;;;;;;5046495;28;19913;-88
2023/03/03 07:41:13;;;;;;;;;;;13.40;48.00;;;;;;5029190;28;20192;-88
2023/03/03 07:43:42;;;;;;;;;;;13.30;48.20;;;;;;5046665;28;19963;-88
2023/03/03 07:46:14;;;;;;;;;;;13.10;48.30;;;;;;5029182;28;20316;-88
2023/03/03 07:48:40;;;;;;;;;;;13.00;48.50;;;;;;5028991;28;19909;-88
2023/03/03 07:51:32;;;;;;;;;;;12.80;48.70;;;;;;5030368;28;20031;-88
2023/03/03 07:54:16;;;;;;;;;;;12.70;48.90;;;;;;5025683;28;19969;-88
2023/03/03 07:56:42;;;;;;;;;;;12.60;49.10;;;;;;5028316;28;19909;-88
2023/03/03 07:59:21;;;;;;;;;;;12.50;49.30;;;;;;5027643;28;19908;-87
2023/03/03 08:01:50;;;;;;;;;;;12.40;49.50;;;;;;5026109;28;20242;-88
2023/03/03 08:04:18;;;;;;;;;;;12.20;49.60;;;;;;5043776;28;19913;-88
2023/03/03 08:06:45;;;;;;;;;;;12.20;49.90;;;;;;5045772;28;19908;-88
2023/03/03 08:09:11;;;;;;;;;;;12.10;50.00;;;;;;5026427;28;19909;-88
2023/03/03 08:11:48;;;;;;;;;;;12.00;50.20;;;;;;5025614;28;19916;-88
2023/03/03 08:14:14;;;;;;;;;;;11.90;50.40;;;;;;5025146;28;19995;-88
2023/03/03 08:16:40;;;;;;;;;;;11.80;50.60;;;;;;5027634;28;20125;-88
2023/03/03 08:19:05;;;;;;;;;;;11.70;50.70;;;;;;5045560;28;19987;-88
2023/03/03 08:21:33;;;;;;;;;;;11.70;50.90;;;;;;5026435;28;19940;-88
2023/03/03 08:23:58;;;;;;;;;;;11.70;51.00;;;;;;5025779;28;19923;-88
2023/03/03 08:26:27;;;;;;;;;;;11.80;51.00;;;;;;5044032;28;20068;-88
2023/03/03 08:28:56;;;;;;;;;;;12.20;50.50;;;;;;5028208;28;19916;-88
2023/03/03 08:31:21;;;;;;;;;;;12.70;49.70;;;;;;5028955;28;19909;-88
2023/03/03 08:33:47;;;;;;;;;;;13.10;49.00;;;;;;5028659;28;19909;-88
2023/03/03 08:36:16;;;;;;;;;;;13.60;48.20;;;;;;5028347;28;19908;-88
2023/03/03 08:38:45;;;;;;;;;;;14.20;47.40;;;;;;5030088;28;20167;-87
2023/03/03 08:41:11;;;;;;;;;;;14.70;46.70;;;;;;5029315;28;19913;-88
2023/03/03 08:43:39;;;;;;;;;;;15.00;46.20;;;;;;5029436;28;19912;-87
2023/03/03 08:46:09;;;;;;;;;;;15.20;45.80;;;;;;5029656;28;19919;-88
2023/03/03 08:48:34;;;;;;;;;;;15.20;45.70;;;;;;5032619;28;20061;-88
2023/03/03 08:51:00;;;;;;;;;;;15.20;45.80;;;;;;5031996;28;20295;-88
2023/03/03 08:53:26;;;;;;;;;;;15.00;45.90;;;;;;5031848;28;19966;-88
2023/03/03 08:55:52;;;;;;;;;;;14.90;46.00;;;;;;5033148;28;20172;-88
2023/03/03 08:58:21;;;;;;;;;;;14.80;46.20;;;;;;5031252;28;19909;-88
2023/03/03 09:00:47;;;;;;;;;;;14.60;46.40;;;;;;5029708;28;19971;-88
2023/03/03 09:03:12;;;;;;;;;;;14.40;46.60;;;;;;5031625;28;20012;-88
2023/03/03 09:05:38;;;;;;;;;;;14.20;46.90;;;;;;5032388;28;20010;-88
2023/03/03 09:08:09;;;;;;;;;;;14.00;47.10;;;;;;5034581;28;19944;-88
2023/03/03 09:10:35;;;;;;;;;;;13.90;47.40;;;;;;5052373;28;20199;-88
2023/03/03 09:13:06;;;;;;;;;;;13.70;47.60;;;;;;5052198;28;19939;-88
2023/03/03 09:15:33;;;;;;;;;;;13.60;47.90;;;;;;5037342;28;19909;-88
2023/03/03 09:18:01;;;;;;;;;;;13.50;48.10;;;;;;5035214;28;20377;-88
2023/03/03 09:20:49;;;;;;;;;;;13.30;48.30;;;;;;5052256;28;19912;-88
2023/03/03 09:23:36;;;;;;;;;;;13.20;48.80;;;;;;4987487;28;19920;-88
2023/03/03 09:26:20;;;;;;;;;;;13.10;51.00;;;;;;5049151;28;19920;-88
2023/03/03 09:28:45;;;;;;;;;;;13.00;51.00;;;;;;5031035;28;20227;-88
2023/03/03 09:31:40;;;;;;;;;;;12.90;51.30;;;;;;5032103;28;20002;-88
2023/03/03 09:34:24;;;;;;;;;;;12.80;51.50;;;;;;4950360;28;20139;-88
2023/03/03 09:36:51;;;;;;;;;;;12.70;51.80;;;;;;5031503;28;19935;-88
2023/03/03 09:39:22;;;;;;;;;;;12.60;51.90;;;;;;5031375;28;19909;-88
2023/03/03 09:42:06;;;;;;;;;;;12.60;52.10;;;;;;5030565;28;19956;-88
2023/03/03 09:44:50;;;;;;;;;;;12.50;52.20;;;;;;5031946;28;20002;-88
2023/03/03 09:47:27;;;;;;;;;;;12.40;52.40;;;;;;5032078;28;20346;-88
2023/03/03 09:49:56;;;;;;;;;;;12.40;52.50;;;;;;5033729;28;19992;-88
2023/03/03 09:52:25;;;;;;;;;;;12.30;52.70;;;;;;5031505;28;20302;-89
2023/03/03 09:54:56;;;;;;;;;;;12.30;52.90;;;;;;5032643;28;20081;-88
2023/03/03 09:57:28;;;;;;;;;;;12.20;53.00;;;;;;5030910;28;20182;-88
2023/03/03 10:00:14;;;;;;;;;;;12.20;53.20;;;;;;5032840;28;19909;-88
2023/03/03 10:02:51;;;;;;;;;;;12.20;53.30;;;;;;5029348;28;19924;-88
2023/03/03 10:05:20;;;;;;;;;;;12.20;53.30;;;;;;5029431;28;20178;-88
2023/03/03 10:07:58;;;;;;;;;;;12.30;53.40;;;;;;5029196;28;19920;-89
2023/03/03 10:10:44;;;;;;;;;;;12.40;53.30;;;;;;5030369;28;19971;-88
2023/03/03 10:13:45;;;;;;;;;;;12.50;53.40;;;;;;5032043;28;19909;-88
2023/03/03 10:16:16;;;;;;;;;;;12.70;52.80;;;;;;4931510;29;19955;-88
2023/03/03 10:18:48;;;;;;;;;;;12.90;52.10;;;;;;5011071;28;20438;-87
2023/03/03 10:21:32;;;;;;;;;;;13.10;51.70;;;;;;5030034;28;19909;-88
2023/03/03 10:24:13;;;;;;;;;;;13.30;51.40;;;;;;5028982;28;20245;-88
2023/03/03 10:26:49;;;;;;;;;;;13.50;51.10;;;;;;5030861;28;19908;-88
2023/03/03 10:29:15;;;;;;;;;;;13.50;50.80;;;;;;5046844;28;20090;-88
2023/03/03 10:31:47;;;;;;;;;;;13.60;50.60;;;;;;5029835;28;19975;-88
2023/03/03 10:34:19;;;;;;;;;;;13.60;50.50;;;;;;5046893;28;20271;-88
2023/03/03 10:36:44;;;;;;;;;;;13.60;50.50;;;;;;5029484;28;20141;-88
2023/03/03 10:39:16;;;;;;;;;;;13.50;50.50;;;;;;5031387;28;19916;-88
2023/03/03 10:41:58;;;;;;;;;;;13.50;50.70;;;;;;5030639;28;20073;-88
2023/03/03 10:44:42;;;;;;;;;;;13.40;50.70;;;;;;5027710;28;19942;-88
2023/03/03 10:47:31;;;;;;;;;;;13.30;50.90;;;;;;5029112;28;19908;-88
2023/03/03 10:50:03;;;;;;;;;;;13.20;51.10;;;;;;4984449;28;19909;-88
2023/03/03 10:52:36;;;;;;;;;;;13.10;51.30;;;;;;5030516;28;20193;-88
2023/03/03 10:55:18;;;;;;;;;;;13.00;51.40;;;;;;5028914;28;19909;-88
2023/03/03 10:58:00;;;;;;;;;;;12.90;51.60;;;;;;5030588;28;19970;-88
2023/03/03 11:00:28;;;;;;;;;;;12.80;51.80;;;;;;5046758;28;19909;-88
2023/03/03 11:02:54;;;;;;;;;;;12.70;51.90;;;;;;5047756;28;20186;-89
2023/03/03 11:05:27;;;;;;;;;;;12.60;52.10;;;;;;5030446;28;19972;-88
2023/03/03 11:07:56;;;;;;;;;;;12.50;52.20;;;;;;5029349;28;19909;-88
2023/03/03 11:10:31;;;;;;;;;;;12.50;52.40;;;;;;5031125;28;19909;-88
2023/03/03 11:13:08;;;;;;;;;;;12.40;52.60;;;;;;5031068;28;20283;-89
2023/03/03 11:15:45;;;;;;;;;;;12.40;52.70;;;;;;5032563;28;20025;-88
2023/03/03 11:18:23;;;;;;;;;;;12.40;52.80;;;;;;5032604;28;19909;-88
2023/03/03 11:20:58;;;;;;;;;;;12.30;52.90;;;;;;5029030;28;20165;-88
2023/03/03 11:23:47;;;;;;;;;;;12.30;53.10;;;;;;5029817;28;20073;-88
2023/03/03 11:26:25;;;;;;;;;;;12.20;53.10;;;;;;5028747;28;19920;-88
2023/03/03 11:29:10;;;;;;;;;;;12.20;53.30;;;;;;5026998;28;19928;-88
2023/03/03 11:31:54;;;;;;;;;;;12.20;53.40;;;;;;5028075;28;20230;-88
2023/03/03 11:34:52;;;;;;;;;;;12.20;53.40;;;;;;5027182;28;20166;-88
2023/03/03 11:37:22;;;;;;;;;;;12.20;53.50;;;;;;4974195;28;20056;-88
2023/03/03 11:39:48;;;;;;;;;;;12.20;53.60;;;;;;5026269;28;20099;-88
2023/03/03 11:42:20;;;;;;;;;;;12.10;53.60;;;;;;5044328;28;19917;-88
2023/03/03 11:44:50;;;;;;;;;;;12.10;53.60;;;;;;5028106;28;20068;-88
2023/03/03 11:47:34;;;;;;;;;;;12.10;53.80;;;;;;5025606;28;19948;-88
2023/03/03 11:50:04;;;;;;;;;;;12.10;53.80;;;;;;5026853;28;19959;-89
2023/03/03 11:52:43;;;;;;;;;;;12.10;54.00;;;;;;5024211;28;20306;-88
2023/03/03 11:55:17;;;;;;;;;;;12.20;54.20;;;;;;5027654;28;20011;-88
2023/03/03 11:58:01;;;;;;;;;;;12.40;53.70;;;;;;5045059;28;19908;-88
2023/03/03 12:00:34;;;;;;;;;;;12.80;53.10;;;;;;5042863;28;20015;-88
2023/03/03 12:03:18;;;;;;;;;;;13.30;52.00;;;;;;5024299;28;19913;-88
2023/03/03 12:05:55;;;;;;;;;;;13.70;51.10;;;;;;5024623;28;19909;-88
2023/03/03 12:08:39;;;;;;;;;;;14.10;50.50;;;;;;5024157;28;19939;-88
2023/03/03 12:11:05;;;;;;;;;;;14.30;50.20;;;;;;5023166;28;19939;-88
2023/03/03 12:13:34;;;;;;;;;;;14.40;49.90;;;;;;5024076;28;19916;-88
2023/03/03 12:15:59;;;;;;;;;;;14.50;49.80;;;;;;5027076;28;20258;-88
2023/03/03 12:18:38;;;;;;;;;;;14.50;49.60;;;;;;5026150;28;20358;-88
2023/03/03 12:21:22;;;;;;;;;;;14.50;49.60;;;;;;5023517;28;19916;-88
2023/03/03 12:24:23;;;;;;;;;;;14.50;49.60;;;;;;5022223;28;19928;-88
2023/03/03 12:26:51;;;;;;;;;;;14.40;49.70;;;;;;4965008;28;19921;-88
2023/03/03 12:29:38;;;;;;;;;;;14.30;49.90;;;;;;5011999;28;20240;-88
2023/03/03 12:32:22;;;;;;;;;;;14.20;50.10;;;;;;5021988;28;19916;-88
2023/03/03 12:34:47;;;;;;;;;;;14.10;50.40;;;;;;5002557;28;19916;-88
2023/03/03 12:37:28;;;;;;;;;;;13.90;51.20;;;;;;5005310;28;20183;-88
2023/03/03 12:40:10;;;;;;;;;;;13.90;54.20;;;;;;5004758;28;19909;-88
2023/03/03 12:42:42;;;;;;;;;;;13.90;56.60;;;;;;5003457;28;20272;-88
2023/03/03 12:45:11;;;;;;;;;;;13.90;58.30;;;;;;5005711;28;19909;-88
2023/03/03 12:47:37;;;;;;;;;;;14.00;59.20;;;;;;5007607;28;19944;-88
2023/03/03 12:50:09;;;;;;;;;;;14.20;59.30;;;;;;5007039;28;20183;-88
2023/03/03 12:52:40;;;;;;;;;;;14.30;59.40;;;;;;5005860;28;19909;-88
2023/03/03 12:55:15;;;;;;;;;;;14.30;59.50;;;;;;5006863;28;20412;-88
2023/03/03 12:57:50;;;;;;;;;;;14.30;59.20;;;;;;5005376;28;19921;-88
2023/03/03 13:00:30;;;;;;;;;;;14.30;59.00;;;;;;5042089;28;19913;-88
2023/03/03 13:03:02;;;;;;;;;;;14.20;59.20;;;;;;5046065;28;19960;-88
2023/03/03 13:05:46;;;;;;;;;;;14.10;59.50;;;;;;5044575;28;19916;-88
2023/03/03 13:08:15;;;;;;;;;;;14.10;59.80;;;;;;5033590;28;19920;-88
2023/03/03 13:10:49;;;;;;;;;;;14.00;59.80;;;;;;5034011;28;19913;-88
2023/03/03 13:13:36;;;;;;;;;;;14.00;60.00;;;;;;5052009;28;19909;-88
2023/03/03 13:16:07;;;;;;;;;;;14.00;60.10;;;;;;5032991;28;19912;-88
2023/03/03 13:18:51;;;;;;;;;;;14.00;60.10;;;;;;5033310;28;19915;-88
2023/03/03 13:21:36;;;;;;;;;;;13.90;60.10;;;;;;5005490;28;20279;-88
2023/03/03 13:24:16;;;;;;;;;;;13.90;60.40;;;;;;5027191;28;20326;-88
2023/03/03 13:26:45;;;;;;;;;;;13.90;60.30;;;;;;5031608;28;19964;-88
2023/03/03 13:29:10;;;;;;;;;;;13.90;60.40;;;;;;5029045;28;20349;-88
2023/03/03 13:31:40;;;;;;;;;;;13.90;60.80;;;;;;5026496;28;19921;-88
2023/03/03 13:34:24;;;;;;;;;;;13.90;61.10;;;;;;5027261;28;19948;-88
2023/03/03 13:36:57;;;;;;;;;;;13.80;61.00;;;;;;5026313;28;19909;-88
2023/03/03 13:39:30;;;;;;;;;;;13.90;61.20;;;;;;5009307;28;19920;-88
2023/03/03 13:41:58;;;;;;;;;;;13.90;61.20;;;;;;5009702;28;20039;-88
2023/03/03 13:44:30;;;;;;;;;;;13.90;61.30;;;;;;5011997;28;19913;-88
2023/03/03 13:47:00;;;;;;;;;;;13.90;61.40;;;;;;5009628;28;19920;-88
2023/03/03 13:49:32;;;;;;;;;;;13.90;62.20;;;;;;5011677;28;19909;-88
2023/03/03 13:52:08;;;;;;;;;;;13.90;62.20;;;;;;5029551;28;19909;-88
2023/03/03 13:54:49;;;;;;;;;;;14.00;61.90;;;;;;5026283;28;20003;-88
2023/03/03 13:57:34;;;;;;;;;;;14.00;61.40;;;;;;5047187;28;19916;-88
2023/03/03 14:00:16;;;;;;;;;;;14.00;61.10;;;;;;5046230;28;20263;-88
2023/03/03 14:02:48;;;;;;;;;;;14.00;60.60;;;;;;5033776;28;19912;-88
2023/03/03 14:05:32;;;;;;;;;;;14.00;60.20;;;;;;5049195;28;19913;-88
2023/03/03 14:07:59;;;;;;;;;;;14.00;60.00;;;;;;5048005;28;19970;-88
2023/03/03 14:10:34;;;;;;;;;;;14.10;59.90;;;;;;5046273;28;20255;-88
2023/03/03 14:13:14;;;;;;;;;;;14.10;60.00;;;;;;5044970;28;19909;-88
2023/03/03 14:15:51;;;;;;;;;;;14.10;60.00;;;;;;5056218;28;20031;-88
2023/03/03 14:18:19;;;;;;;;;;;14.10;60.30;;;;;;5031488;28;20104;-88
2023/03/03 14:20:52;;;;;;;;;;;14.10;60.80;;;;;;5046488;28;19917;-88
2023/03/03 14:23:36;;;;;;;;;;;14.10;61.60;;;;;;5047790;28;19923;-88
2023/03/03 14:26:02;;;;;;;;;;;14.10;64.00;;;;;;5047036;28;19970;-88
2023/03/03 14:28:36;;;;;;;;;;;14.10;68.70;;;;;;5029938;28;19920;-88
2023/03/03 14:31:13;;;;;;;;;;;14.20;73.10;;;;;;5046438;28;20380;-88
2023/03/03 14:33:42;;;;;;;;;;;14.30;75.30;;;;;;5032189;28;19923;-88
2023/03/03 14:36:10;;;;;;;;;;;14.30;75.90;;;;;;5055166;28;19998;-88
2023/03/03 14:38:40;;;;;;;;;;;14.30;75.90;;;;;;5034745;28;20004;-88